sensor_id;sensor_type;location;lat;lon;timestamp;P1;durP1;ratioP1;P2;durP2;ratioP2
67508;SDS011;54354;44.724;11.284;2023-12-28T00:01:27;48.53;;;31.90;;
67508;SDS011;54354;44.724;11.284;2023-12-28T00:03:53;45.38;;;31.63;;
67508;SDS011;54354;44.724;11.284;2023-12-28T00:06:18;44.53;;;30.20;;
67508;SDS011;54354;44.724;11.284;2023-12-28T00:08:44;41.75;;;29.75;;
67508;SDS011;54354;44.724;11.284;2023-12-28T00:11:09;42.28;;;28.83;;
67508;SDS011;54354;44.724;11.284;2023-12-28T00:13:35;45.40;;;31.05;;
67508;SDS011;54354;44.724;11.284;2023-12-28T00:16:00;46.13;;;29.17;;
67508;SDS011;54354;44.724;11.284;2023-12-28T00:18:26;42.55;;;30.70;;
67508;SDS011;54354;44.724;11.284;2023-12-28T00:20:52;40.50;;;30.25;;
67508;SDS011;54354;44.724;11.284;2023-12-28T00:23:18;41.63;;;29.48;;
67508;SDS011;54354;44.724;11.284;2023-12-28T00:25:45;43.05;;;29.13;;
67508;SDS011;54354;44.724;11.284;2023-12-28T00:28:11;39.67;;;28.08;;
67508;SDS011;54354;44.724;11.284;2023-12-28T00:30:36;40.65;;;28.95;;
67508;SDS011;54354;44.724;11.284;2023-12-28T00:33:02;40.72;;;29.75;;
67508;SDS011;54354;44.724;11.284;2023-12-28T00:35:27;47.13;;;30.10;;
67508;SDS011;54354;44.724;11.284;2023-12-28T00:37:53;42.88;;;31.45;;
67508;SDS011;54354;44.724;11.284;2023-12-28T00:40:19;40.75;;;30.83;;
67508;SDS011;54354;44.724;11.284;2023-12-28T00:42:45;43.85;;;31.13;;
67508;SDS011;54354;44.724;11.284;2023-12-28T00:45:10;43.00;;;30.73;;
67508;SDS011;54354;44.724;11.284;2023-12-28T00:47:36;40.88;;;29.52;;
67508;SDS011;54354;44.724;11.284;2023-12-28T00:50:01;43.40;;;29.85;;
67508;SDS011;54354;44.724;11.284;2023-12-28T00:52:27;39.47;;;30.20;;
67508;SDS011;54354;44.724;11.284;2023-12-28T00:54:52;41.50;;;29.65;;
67508;SDS011;54354;44.724;11.284;2023-12-28T00:57:18;44.22;;;29.67;;
67508;SDS011;54354;44.724;11.284;2023-12-28T00:59:43;40.45;;;29.70;;
67508;SDS011;54354;44.724;11.284;2023-12-28T01:02:09;42.03;;;30.17;;
67508;SDS011;54354;44.724;11.284;2023-12-28T01:04:35;47.95;;;33.72;;
67508;SDS011;54354;44.724;11.284;2023-12-28T01:07:02;41.78;;;32.92;;
67508;SDS011;54354;44.724;11.284;2023-12-28T01:09:30;44.72;;;33.60;;
67508;SDS011;54354;44.724;11.284;2023-12-28T01:11:57;43.88;;;32.03;;
67508;SDS011;54354;44.724;11.284;2023-12-28T01:14:23;44.55;;;33.22;;
67508;SDS011;54354;44.724;11.284;2023-12-28T01:16:48;44.55;;;32.72;;
67508;SDS011;54354;44.724;11.284;2023-12-28T01:19:14;40.00;;;31.10;;
67508;SDS011;54354;44.724;11.284;2023-12-28T01:21:40;43.55;;;33.17;;
67508;SDS011;54354;44.724;11.284;2023-12-28T01:24:05;48.33;;;35.13;;
67508;SDS011;54354;44.724;11.284;2023-12-28T01:26:31;49.75;;;38.13;;
67508;SDS011;54354;44.724;11.284;2023-12-28T01:28:56;54.90;;;40.78;;
67508;SDS011;54354;44.724;11.284;2023-12-28T01:31:22;54.10;;;41.28;;
67508;SDS011;54354;44.724;11.284;2023-12-28T01:33:47;47.85;;;38.22;;
67508;SDS011;54354;44.724;11.284;2023-12-28T01:36:22;60.70;;;41.60;;
67508;SDS011;54354;44.724;11.284;2023-12-28T01:38:48;45.47;;;34.60;;
67508;SDS011;54354;44.724;11.284;2023-12-28T01:41:14;44.28;;;34.03;;
67508;SDS011;54354;44.724;11.284;2023-12-28T01:43:43;44.05;;;33.38;;
67508;SDS011;54354;44.724;11.284;2023-12-28T01:46:11;42.45;;;33.20;;
67508;SDS011;54354;44.724;11.284;2023-12-28T01:48:42;45.08;;;34.05;;
67508;SDS011;54354;44.724;11.284;2023-12-28T01:51:10;46.90;;;34.35;;
67508;SDS011;54354;44.724;11.284;2023-12-28T01:53:37;49.78;;;35.42;;
67508;SDS011;54354;44.724;11.284;2023-12-28T01:56:03;45.88;;;36.78;;
67508;SDS011;54354;44.724;11.284;2023-12-28T01:58:29;45.60;;;34.55;;
67508;SDS011;54354;44.724;11.284;2023-12-28T02:01:00;39.47;;;32.33;;
67508;SDS011;54354;44.724;11.284;2023-12-28T02:03:26;39.47;;;33.17;;
67508;SDS011;54354;44.724;11.284;2023-12-28T02:05:53;42.60;;;32.70;;
67508;SDS011;54354;44.724;11.284;2023-12-28T02:08:19;40.88;;;32.97;;
67508;SDS011;54354;44.724;11.284;2023-12-28T02:10:44;48.90;;;33.13;;
67508;SDS011;54354;44.724;11.284;2023-12-28T02:13:10;45.58;;;34.28;;
67508;SDS011;54354;44.724;11.284;2023-12-28T02:15:35;56.00;;;39.03;;
67508;SDS011;54354;44.724;11.284;2023-12-28T02:18:02;49.97;;;40.03;;
67508;SDS011;54354;44.724;11.284;2023-12-28T02:20:34;51.53;;;41.72;;
67508;SDS011;54354;44.724;11.284;2023-12-28T02:23:00;51.83;;;41.65;;
67508;SDS011;54354;44.724;11.284;2023-12-28T02:25:26;52.85;;;41.20;;
67508;SDS011;54354;44.724;11.284;2023-12-28T02:27:51;54.25;;;41.20;;
67508;SDS011;54354;44.724;11.284;2023-12-28T02:30:18;54.83;;;41.88;;
67508;SDS011;54354;44.724;11.284;2023-12-28T02:36:01;46.92;;;37.05;;
67508;SDS011;54354;44.724;11.284;2023-12-28T02:38:36;44.70;;;35.65;;
67508;SDS011;54354;44.724;11.284;2023-12-28T02:41:04;46.92;;;36.53;;
67508;SDS011;54354;44.724;11.284;2023-12-28T02:43:30;45.55;;;36.42;;
67508;SDS011;54354;44.724;11.284;2023-12-28T02:45:57;40.90;;;33.53;;
67508;SDS011;54354;44.724;11.284;2023-12-28T02:48:22;42.20;;;34.05;;
67508;SDS011;54354;44.724;11.284;2023-12-28T02:50:48;40.25;;;33.95;;
67508;SDS011;54354;44.724;11.284;2023-12-28T02:53:14;43.08;;;33.38;;
67508;SDS011;54354;44.724;11.284;2023-12-28T02:55:39;40.20;;;32.70;;
67508;SDS011;54354;44.724;11.284;2023-12-28T02:58:05;37.88;;;31.85;;
67508;SDS011;54354;44.724;11.284;2023-12-28T03:00:31;37.55;;;30.85;;
67508;SDS011;54354;44.724;11.284;2023-12-28T03:02:56;39.25;;;33.28;;
67508;SDS011;54354;44.724;11.284;2023-12-28T03:05:26;39.30;;;33.55;;
67508;SDS011;54354;44.724;11.284;2023-12-28T03:07:52;40.97;;;31.55;;
67508;SDS011;54354;44.724;11.284;2023-12-28T03:10:17;39.20;;;32.75;;
67508;SDS011;54354;44.724;11.284;2023-12-28T03:12:43;39.85;;;33.97;;
67508;SDS011;54354;44.724;11.284;2023-12-28T03:15:08;38.90;;;33.38;;
67508;SDS011;54354;44.724;11.284;2023-12-28T03:17:34;38.95;;;34.63;;
67508;SDS011;54354;44.724;11.284;2023-12-28T03:20:01;36.75;;;32.95;;
67508;SDS011;54354;44.724;11.284;2023-12-28T03:22:27;35.60;;;31.83;;
67508;SDS011;54354;44.724;11.284;2023-12-28T03:24:53;41.80;;;32.47;;
67508;SDS011;54354;44.724;11.284;2023-12-28T03:27:18;35.20;;;31.60;;
67508;SDS011;54354;44.724;11.284;2023-12-28T03:29:44;35.05;;;31.33;;
67508;SDS011;54354;44.724;11.284;2023-12-28T03:32:09;36.15;;;32.38;;
67508;SDS011;54354;44.724;11.284;2023-12-28T03:34:35;34.42;;;30.70;;
67508;SDS011;54354;44.724;11.284;2023-12-28T03:37:01;35.88;;;31.95;;
67508;SDS011;54354;44.724;11.284;2023-12-28T03:39:26;34.22;;;30.58;;
67508;SDS011;54354;44.724;11.284;2023-12-28T03:41:54;36.60;;;30.48;;
67508;SDS011;54354;44.724;11.284;2023-12-28T03:44:19;33.78;;;30.05;;
67508;SDS011;54354;44.724;11.284;2023-12-28T03:46:49;38.58;;;32.55;;
67508;SDS011;54354;44.724;11.284;2023-12-28T03:49:18;41.67;;;30.15;;
67508;SDS011;54354;44.724;11.284;2023-12-28T03:51:44;53.67;;;32.85;;
67508;SDS011;54354;44.724;11.284;2023-12-28T03:54:10;73.32;;;33.90;;
67508;SDS011;54354;44.724;11.284;2023-12-28T03:56:36;55.05;;;30.35;;
67508;SDS011;54354;44.724;11.284;2023-12-28T03:59:05;75.47;;;31.40;;
67508;SDS011;54354;44.724;11.284;2023-12-28T04:01:32;265.65;;;31.73;;
67508;SDS011;54354;44.724;11.284;2023-12-28T04:03:58;248.02;;;34.03;;
67508;SDS011;54354;44.724;11.284;2023-12-28T04:06:23;213.55;;;34.72;;
67508;SDS011;54354;44.724;11.284;2023-12-28T04:08:49;223.88;;;32.47;;
67508;SDS011;54354;44.724;11.284;2023-12-28T04:11:14;227.60;;;33.05;;
67508;SDS011;54354;44.724;11.284;2023-12-28T04:13:40;116.45;;;31.65;;
67508;SDS011;54354;44.724;11.284;2023-12-28T04:16:06;56.00;;;29.00;;
67508;SDS011;54354;44.724;11.284;2023-12-28T04:18:31;30.67;;;27.58;;
67508;SDS011;54354;44.724;11.284;2023-12-28T04:20:58;29.13;;;26.02;;
67508;SDS011;54354;44.724;11.284;2023-12-28T04:23:23;27.88;;;25.17;;
67508;SDS011;54354;44.724;11.284;2023-12-28T04:25:49;27.38;;;24.50;;
67508;SDS011;54354;44.724;11.284;2023-12-28T04:28:14;26.83;;;24.13;;
67508;SDS011;54354;44.724;11.284;2023-12-28T04:30:40;26.83;;;24.05;;
67508;SDS011;54354;44.724;11.284;2023-12-28T04:33:06;28.30;;;23.77;;
67508;SDS011;54354;44.724;11.284;2023-12-28T04:35:31;25.88;;;23.02;;
67508;SDS011;54354;44.724;11.284;2023-12-28T04:37:57;25.83;;;23.13;;
67508;SDS011;54354;44.724;11.284;2023-12-28T04:40:23;25.83;;;22.27;;
67508;SDS011;54354;44.724;11.284;2023-12-28T04:42:48;26.00;;;23.38;;
67508;SDS011;54354;44.724;11.284;2023-12-28T04:45:14;25.83;;;23.20;;
67508;SDS011;54354;44.724;11.284;2023-12-28T04:47:39;28.20;;;23.08;;
67508;SDS011;54354;44.724;11.284;2023-12-28T04:50:05;26.27;;;22.33;;
67508;SDS011;54354;44.724;11.284;2023-12-28T04:52:31;30.02;;;24.52;;
67508;SDS011;54354;44.724;11.284;2023-12-28T04:54:57;25.10;;;22.45;;
67508;SDS011;54354;44.724;11.284;2023-12-28T04:57:23;26.50;;;23.25;;
67508;SDS011;54354;44.724;11.284;2023-12-28T04:59:53;27.38;;;23.67;;
67508;SDS011;54354;44.724;11.284;2023-12-28T05:02:19;25.15;;;21.48;;
67508;SDS011;54354;44.724;11.284;2023-12-28T05:04:44;28.70;;;22.65;;
67508;SDS011;54354;44.724;11.284;2023-12-28T05:07:11;27.67;;;21.92;;
67508;SDS011;54354;44.724;11.284;2023-12-28T05:09:37;25.45;;;22.15;;
67508;SDS011;54354;44.724;11.284;2023-12-28T05:12:02;25.45;;;21.08;;
67508;SDS011;54354;44.724;11.284;2023-12-28T05:14:29;25.55;;;21.48;;
67508;SDS011;54354;44.724;11.284;2023-12-28T05:16:54;24.73;;;21.95;;
67508;SDS011;54354;44.724;11.284;2023-12-28T05:19:20;27.38;;;21.33;;
67508;SDS011;54354;44.724;11.284;2023-12-28T05:21:46;29.55;;;22.75;;
67508;SDS011;54354;44.724;11.284;2023-12-28T05:24:12;24.75;;;21.63;;
67508;SDS011;54354;44.724;11.284;2023-12-28T05:26:38;26.05;;;21.02;;
67508;SDS011;54354;44.724;11.284;2023-12-28T05:29:03;25.20;;;20.70;;
67508;SDS011;54354;44.724;11.284;2023-12-28T05:31:29;23.55;;;20.15;;
67508;SDS011;54354;44.724;11.284;2023-12-28T05:33:54;24.00;;;21.40;;
67508;SDS011;54354;44.724;11.284;2023-12-28T05:36:20;24.40;;;20.55;;
67508;SDS011;54354;44.724;11.284;2023-12-28T05:38:45;25.40;;;20.27;;
67508;SDS011;54354;44.724;11.284;2023-12-28T05:41:11;23.40;;;18.90;;
67508;SDS011;54354;44.724;11.284;2023-12-28T05:43:37;25.35;;;19.50;;
67508;SDS011;54354;44.724;11.284;2023-12-28T05:46:03;26.92;;;20.65;;
67508;SDS011;54354;44.724;11.284;2023-12-28T05:48:29;27.35;;;20.38;;
67508;SDS011;54354;44.724;11.284;2023-12-28T05:50:54;29.48;;;21.38;;
67508;SDS011;54354;44.724;11.284;2023-12-28T05:53:20;24.85;;;20.92;;
67508;SDS011;54354;44.724;11.284;2023-12-28T05:55:45;27.98;;;19.85;;
67508;SDS011;54354;44.724;11.284;2023-12-28T05:58:11;36.40;;;21.75;;
67508;SDS011;54354;44.724;11.284;2023-12-28T06:00:36;27.77;;;20.52;;
67508;SDS011;54354;44.724;11.284;2023-12-28T06:03:03;26.17;;;20.17;;
67508;SDS011;54354;44.724;11.284;2023-12-28T06:05:29;26.48;;;20.65;;
67508;SDS011;54354;44.724;11.284;2023-12-28T06:07:55;29.38;;;20.92;;
67508;SDS011;54354;44.724;11.284;2023-12-28T06:10:20;28.35;;;20.45;;
67508;SDS011;54354;44.724;11.284;2023-12-28T06:12:46;29.88;;;20.98;;
67508;SDS011;54354;44.724;11.284;2023-12-28T06:15:11;25.27;;;19.35;;
67508;SDS011;54354;44.724;11.284;2023-12-28T06:17:37;25.48;;;19.38;;
67508;SDS011;54354;44.724;11.284;2023-12-28T06:20:02;25.63;;;19.55;;
67508;SDS011;54354;44.724;11.284;2023-12-28T06:22:29;28.15;;;20.58;;
67508;SDS011;54354;44.724;11.284;2023-12-28T06:24:55;25.88;;;20.13;;
67508;SDS011;54354;44.724;11.284;2023-12-28T06:27:21;25.15;;;19.02;;
67508;SDS011;54354;44.724;11.284;2023-12-28T06:29:47;25.83;;;19.40;;
67508;SDS011;54354;44.724;11.284;2023-12-28T06:32:12;27.15;;;20.75;;
67508;SDS011;54354;44.724;11.284;2023-12-28T06:34:38;34.67;;;27.70;;
67508;SDS011;54354;44.724;11.284;2023-12-28T06:37:04;27.48;;;19.63;;
67508;SDS011;54354;44.724;11.284;2023-12-28T06:39:29;27.15;;;19.05;;
67508;SDS011;54354;44.724;11.284;2023-12-28T06:41:55;25.67;;;19.98;;
67508;SDS011;54354;44.724;11.284;2023-12-28T06:44:20;24.85;;;19.38;;
67508;SDS011;54354;44.724;11.284;2023-12-28T06:46:46;30.20;;;19.42;;
67508;SDS011;54354;44.724;11.284;2023-12-28T06:49:11;27.88;;;20.63;;
67508;SDS011;54354;44.724;11.284;2023-12-28T06:51:37;25.27;;;19.80;;
67508;SDS011;54354;44.724;11.284;2023-12-28T06:54:03;29.48;;;20.95;;
67508;SDS011;54354;44.724;11.284;2023-12-28T06:56:28;26.33;;;18.88;;
67508;SDS011;54354;44.724;11.284;2023-12-28T06:58:54;24.08;;;18.85;;
67508;SDS011;54354;44.724;11.284;2023-12-28T07:01:19;28.35;;;18.02;;
67508;SDS011;54354;44.724;11.284;2023-12-28T07:03:45;22.75;;;18.58;;
67508;SDS011;54354;44.724;11.284;2023-12-28T07:06:11;24.40;;;17.10;;
67508;SDS011;54354;44.724;11.284;2023-12-28T07:08:38;23.92;;;16.73;;
67508;SDS011;54354;44.724;11.284;2023-12-28T07:11:03;20.67;;;15.98;;
67508;SDS011;54354;44.724;11.284;2023-12-28T07:13:29;22.85;;;16.45;;
67508;SDS011;54354;44.724;11.284;2023-12-28T07:15:54;20.70;;;14.40;;
67508;SDS011;54354;44.724;11.284;2023-12-28T07:18:20;19.60;;;14.43;;
67508;SDS011;54354;44.724;11.284;2023-12-28T07:20:46;19.85;;;14.20;;
67508;SDS011;54354;44.724;11.284;2023-12-28T07:23:11;19.63;;;13.23;;
67508;SDS011;54354;44.724;11.284;2023-12-28T07:25:37;20.55;;;13.73;;
67508;SDS011;54354;44.724;11.284;2023-12-28T07:28:02;19.13;;;14.98;;
67508;SDS011;54354;44.724;11.284;2023-12-28T07:30:28;19.20;;;14.73;;
67508;SDS011;54354;44.724;11.284;2023-12-28T07:32:54;17.85;;;14.05;;
67508;SDS011;54354;44.724;11.284;2023-12-28T07:35:20;22.80;;;12.70;;
67508;SDS011;54354;44.724;11.284;2023-12-28T07:37:45;22.42;;;12.88;;
67508;SDS011;54354;44.724;11.284;2023-12-28T07:40:11;19.27;;;13.30;;
67508;SDS011;54354;44.724;11.284;2023-12-28T07:42:38;19.98;;;11.57;;
67508;SDS011;54354;44.724;11.284;2023-12-28T07:45:03;17.55;;;12.10;;
67508;SDS011;54354;44.724;11.284;2023-12-28T07:47:29;15.88;;;12.55;;
67508;SDS011;54354;44.724;11.284;2023-12-28T07:49:55;17.10;;;11.77;;
67508;SDS011;54354;44.724;11.284;2023-12-28T07:52:21;17.42;;;11.23;;
67508;SDS011;54354;44.724;11.284;2023-12-28T07:54:46;15.73;;;10.77;;
67508;SDS011;54354;44.724;11.284;2023-12-28T07:57:12;15.50;;;10.75;;
67508;SDS011;54354;44.724;11.284;2023-12-28T07:59:37;16.02;;;10.57;;
67508;SDS011;54354;44.724;11.284;2023-12-28T08:02:03;14.65;;;10.20;;
67508;SDS011;54354;44.724;11.284;2023-12-28T08:04:29;18.27;;;10.82;;
67508;SDS011;54354;44.724;11.284;2023-12-28T08:06:54;21.10;;;14.32;;
67508;SDS011;54354;44.724;11.284;2023-12-28T08:09:20;18.48;;;11.18;;
67508;SDS011;54354;44.724;11.284;2023-12-28T08:11:45;12.20;;;9.90;;
67508;SDS011;54354;44.724;11.284;2023-12-28T08:14:11;17.13;;;10.32;;
67508;SDS011;54354;44.724;11.284;2023-12-28T08:16:36;19.63;;;11.43;;
67508;SDS011;54354;44.724;11.284;2023-12-28T08:19:02;19.48;;;13.35;;
67508;SDS011;54354;44.724;11.284;2023-12-28T08:21:27;20.65;;;12.68;;
67508;SDS011;54354;44.724;11.284;2023-12-28T08:23:53;17.90;;;11.98;;
67508;SDS011;54354;44.724;11.284;2023-12-28T08:26:19;12.90;;;10.88;;
67508;SDS011;54354;44.724;11.284;2023-12-28T08:28:44;15.55;;;10.52;;
67508;SDS011;54354;44.724;11.284;2023-12-28T08:31:10;15.40;;;11.55;;
67508;SDS011;54354;44.724;11.284;2023-12-28T08:33:36;16.02;;;10.80;;
67508;SDS011;54354;44.724;11.284;2023-12-28T08:36:05;14.13;;;10.95;;
67508;SDS011;54354;44.724;11.284;2023-12-28T08:38:32;17.48;;;12.57;;
67508;SDS011;54354;44.724;11.284;2023-12-28T08:40:57;17.67;;;10.90;;
67508;SDS011;54354;44.724;11.284;2023-12-28T08:43:23;18.17;;;11.88;;
67508;SDS011;54354;44.724;11.284;2023-12-28T08:45:48;18.90;;;13.65;;
67508;SDS011;54354;44.724;11.284;2023-12-28T08:48:14;17.52;;;14.10;;
67508;SDS011;54354;44.724;11.284;2023-12-28T08:50:39;27.05;;;19.80;;
67508;SDS011;54354;44.724;11.284;2023-12-28T08:53:05;21.20;;;14.15;;
67508;SDS011;54354;44.724;11.284;2023-12-28T08:55:30;17.95;;;12.63;;
67508;SDS011;54354;44.724;11.284;2023-12-28T08:57:56;20.05;;;12.82;;
67508;SDS011;54354;44.724;11.284;2023-12-28T09:00:21;19.70;;;15.20;;
67508;SDS011;54354;44.724;11.284;2023-12-28T09:02:47;19.02;;;14.52;;
67508;SDS011;54354;44.724;11.284;2023-12-28T09:05:12;22.20;;;15.75;;
67508;SDS011;54354;44.724;11.284;2023-12-28T09:07:38;22.40;;;16.10;;
67508;SDS011;54354;44.724;11.284;2023-12-28T09:10:11;26.13;;;16.58;;
67508;SDS011;54354;44.724;11.284;2023-12-28T09:12:37;23.65;;;18.67;;
67508;SDS011;54354;44.724;11.284;2023-12-28T09:15:04;26.75;;;19.67;;
67508;SDS011;54354;44.724;11.284;2023-12-28T09:17:30;27.30;;;20.50;;
67508;SDS011;54354;44.724;11.284;2023-12-28T09:19:55;26.65;;;20.85;;
67508;SDS011;54354;44.724;11.284;2023-12-28T09:22:23;29.23;;;22.23;;
67508;SDS011;54354;44.724;11.284;2023-12-28T09:24:48;28.30;;;21.98;;
67508;SDS011;54354;44.724;11.284;2023-12-28T09:27:14;31.10;;;22.60;;
67508;SDS011;54354;44.724;11.284;2023-12-28T09:29:39;32.40;;;23.40;;
67508;SDS011;54354;44.724;11.284;2023-12-28T09:32:05;27.25;;;22.60;;
67508;SDS011;54354;44.724;11.284;2023-12-28T09:34:31;28.40;;;22.05;;
67508;SDS011;54354;44.724;11.284;2023-12-28T09:36:57;27.85;;;22.67;;
67508;SDS011;54354;44.724;11.284;2023-12-28T09:39:22;31.23;;;24.30;;
67508;SDS011;54354;44.724;11.284;2023-12-28T09:41:49;29.85;;;22.90;;
67508;SDS011;54354;44.724;11.284;2023-12-28T09:44:20;28.70;;;23.08;;
67508;SDS011;54354;44.724;11.284;2023-12-28T09:46:46;31.88;;;24.92;;
67508;SDS011;54354;44.724;11.284;2023-12-28T09:49:12;31.40;;;23.85;;
67508;SDS011;54354;44.724;11.284;2023-12-28T09:51:38;39.25;;;25.15;;
67508;SDS011;54354;44.724;11.284;2023-12-28T09:54:04;30.42;;;25.75;;
67508;SDS011;54354;44.724;11.284;2023-12-28T09:56:30;32.15;;;25.42;;
67508;SDS011;54354;44.724;11.284;2023-12-28T09:58:57;32.50;;;24.73;;
67508;SDS011;54354;44.724;11.284;2023-12-28T10:01:24;32.10;;;24.42;;
67508;SDS011;54354;44.724;11.284;2023-12-28T10:03:49;33.70;;;24.85;;
67508;SDS011;54354;44.724;11.284;2023-12-28T10:06:15;34.80;;;25.63;;
67508;SDS011;54354;44.724;11.284;2023-12-28T10:08:45;34.40;;;26.30;;
67508;SDS011;54354;44.724;11.284;2023-12-28T10:11:13;37.58;;;29.48;;
67508;SDS011;54354;44.724;11.284;2023-12-28T10:13:39;40.10;;;29.38;;
67508;SDS011;54354;44.724;11.284;2023-12-28T10:16:07;38.20;;;30.23;;
67508;SDS011;54354;44.724;11.284;2023-12-28T10:18:34;43.30;;;33.80;;
67508;SDS011;54354;44.724;11.284;2023-12-28T10:21:00;46.05;;;33.97;;
67508;SDS011;54354;44.724;11.284;2023-12-28T10:23:25;45.25;;;34.03;;
67508;SDS011;54354;44.724;11.284;2023-12-28T10:25:51;45.70;;;34.13;;
67508;SDS011;54354;44.724;11.284;2023-12-28T10:28:18;43.15;;;33.65;;
67508;SDS011;54354;44.724;11.284;2023-12-28T10:30:45;41.78;;;33.20;;
67508;SDS011;54354;44.724;11.284;2023-12-28T10:33:11;42.38;;;31.55;;
67508;SDS011;54354;44.724;11.284;2023-12-28T10:35:36;40.60;;;33.15;;
67508;SDS011;54354;44.724;11.284;2023-12-28T10:38:02;41.47;;;32.08;;
67508;SDS011;54354;44.724;11.284;2023-12-28T10:40:29;39.40;;;32.20;;
67508;SDS011;54354;44.724;11.284;2023-12-28T10:42:57;47.85;;;37.47;;
67508;SDS011;54354;44.724;11.284;2023-12-28T10:45:28;47.70;;;38.08;;
67508;SDS011;54354;44.724;11.284;2023-12-28T10:50:22;49.47;;;38.80;;
67508;SDS011;54354;44.724;11.284;2023-12-28T10:52:52;53.53;;;39.67;;
67508;SDS011;54354;44.724;11.284;2023-12-28T10:57:50;51.92;;;42.40;;
67508;SDS011;54354;44.724;11.284;2023-12-28T11:00:25;57.35;;;44.00;;
67508;SDS011;54354;44.724;11.284;2023-12-28T11:02:57;53.85;;;42.35;;
67508;SDS011;54354;44.724;11.284;2023-12-28T11:05:27;60.30;;;43.63;;
67508;SDS011;54354;44.724;11.284;2023-12-28T11:07:55;61.00;;;44.90;;
67508;SDS011;54354;44.724;11.284;2023-12-28T11:10:26;54.38;;;45.97;;
67508;SDS011;54354;44.724;11.284;2023-12-28T11:15:19;59.13;;;46.33;;
67508;SDS011;54354;44.724;11.284;2023-12-28T11:17:46;59.03;;;46.28;;
67508;SDS011;54354;44.724;11.284;2023-12-28T11:20:11;60.33;;;45.53;;
67508;SDS011;54354;44.724;11.284;2023-12-28T11:22:39;58.42;;;44.63;;
67508;SDS011;54354;44.724;11.284;2023-12-28T11:25:05;63.05;;;47.72;;
67508;SDS011;54354;44.724;11.284;2023-12-28T11:27:34;55.72;;;44.40;;
67508;SDS011;54354;44.724;11.284;2023-12-28T11:30:03;59.20;;;44.92;;
67508;SDS011;54354;44.724;11.284;2023-12-28T11:32:32;56.30;;;43.67;;
67508;SDS011;54354;44.724;11.284;2023-12-28T11:35:06;56.35;;;43.85;;
67508;SDS011;54354;44.724;11.284;2023-12-28T11:37:35;51.65;;;41.53;;
67508;SDS011;54354;44.724;11.284;2023-12-28T11:40:11;49.15;;;40.63;;
67508;SDS011;54354;44.724;11.284;2023-12-28T11:42:47;54.72;;;42.97;;
67508;SDS011;54354;44.724;11.284;2023-12-28T11:45:13;57.17;;;42.08;;
67508;SDS011;54354;44.724;11.284;2023-12-28T11:47:41;55.53;;;40.90;;
67508;SDS011;54354;44.724;11.284;2023-12-28T11:50:07;60.60;;;44.17;;
67508;SDS011;54354;44.724;11.284;2023-12-28T11:52:33;56.25;;;43.97;;
67508;SDS011;54354;44.724;11.284;2023-12-28T11:55:02;53.90;;;40.33;;
67508;SDS011;54354;44.724;11.284;2023-12-28T11:57:29;52.22;;;41.95;;
67508;SDS011;54354;44.724;11.284;2023-12-28T11:59:57;56.00;;;40.40;;
67508;SDS011;54354;44.724;11.284;2023-12-28T12:02:24;53.42;;;40.80;;
67508;SDS011;54354;44.724;11.284;2023-12-28T12:04:51;55.50;;;39.50;;
67508;SDS011;54354;44.724;11.284;2023-12-28T12:07:18;48.03;;;39.33;;
67508;SDS011;54354;44.724;11.284;2023-12-28T12:09:47;52.95;;;40.33;;
67508;SDS011;54354;44.724;11.284;2023-12-28T12:12:12;50.72;;;38.45;;
67508;SDS011;54354;44.724;11.284;2023-12-28T12:14:38;48.75;;;36.03;;
67508;SDS011;54354;44.724;11.284;2023-12-28T12:17:03;50.20;;;35.60;;
67508;SDS011;54354;44.724;11.284;2023-12-28T12:19:29;51.20;;;38.95;;
67508;SDS011;54354;44.724;11.284;2023-12-28T12:21:55;53.95;;;42.75;;
67508;SDS011;54354;44.724;11.284;2023-12-28T12:24:22;55.10;;;40.30;;
67508;SDS011;54354;44.724;11.284;2023-12-28T12:26:51;56.03;;;42.65;;
67508;SDS011;54354;44.724;11.284;2023-12-28T12:29:17;54.33;;;42.30;;
67508;SDS011;54354;44.724;11.284;2023-12-28T12:31:43;52.90;;;42.03;;
67508;SDS011;54354;44.724;11.284;2023-12-28T12:34:11;49.65;;;41.72;;
67508;SDS011;54354;44.724;11.284;2023-12-28T12:36:40;57.42;;;43.28;;
67508;SDS011;54354;44.724;11.284;2023-12-28T12:39:06;58.50;;;43.42;;
67508;SDS011;54354;44.724;11.284;2023-12-28T12:41:35;54.50;;;42.00;;
67508;SDS011;54354;44.724;11.284;2023-12-28T12:44:01;52.65;;;41.40;;
67508;SDS011;54354;44.724;11.284;2023-12-28T12:46:27;51.80;;;40.42;;
67508;SDS011;54354;44.724;11.284;2023-12-28T12:51:22;50.13;;;38.28;;
67508;SDS011;54354;44.724;11.284;2023-12-28T12:53:48;50.80;;;37.45;;
67508;SDS011;54354;44.724;11.284;2023-12-28T12:56:14;55.72;;;38.60;;
67508;SDS011;54354;44.724;11.284;2023-12-28T12:58:40;50.28;;;38.28;;
67508;SDS011;54354;44.724;11.284;2023-12-28T13:01:09;45.50;;;36.00;;
67508;SDS011;54354;44.724;11.284;2023-12-28T13:03:36;47.60;;;37.00;;
67508;SDS011;54354;44.724;11.284;2023-12-28T13:06:03;52.25;;;37.40;;
67508;SDS011;54354;44.724;11.284;2023-12-28T13:08:29;51.47;;;39.25;;
67508;SDS011;54354;44.724;11.284;2023-12-28T13:10:54;51.38;;;38.90;;
67508;SDS011;54354;44.724;11.284;2023-12-28T13:13:20;49.22;;;38.13;;
67508;SDS011;54354;44.724;11.284;2023-12-28T13:15:45;49.28;;;39.35;;
67508;SDS011;54354;44.724;11.284;2023-12-28T13:18:11;53.95;;;40.35;;
67508;SDS011;54354;44.724;11.284;2023-12-28T13:20:37;65.93;;;44.28;;
67508;SDS011;54354;44.724;11.284;2023-12-28T13:23:03;53.60;;;40.63;;
67508;SDS011;54354;44.724;11.284;2023-12-28T13:25:28;51.80;;;40.80;;
67508;SDS011;54354;44.724;11.284;2023-12-28T13:27:54;57.95;;;42.00;;
67508;SDS011;54354;44.724;11.284;2023-12-28T13:30:19;52.85;;;40.60;;
67508;SDS011;54354;44.724;11.284;2023-12-28T13:32:47;53.67;;;41.15;;
67508;SDS011;54354;44.724;11.284;2023-12-28T13:35:13;52.00;;;41.20;;
67508;SDS011;54354;44.724;11.284;2023-12-28T13:37:39;55.28;;;40.92;;
67508;SDS011;54354;44.724;11.284;2023-12-28T13:40:05;52.15;;;39.80;;
67508;SDS011;54354;44.724;11.284;2023-12-28T13:42:32;49.85;;;40.65;;
67508;SDS011;54354;44.724;11.284;2023-12-28T13:44:57;49.65;;;39.45;;
67508;SDS011;54354;44.724;11.284;2023-12-28T13:47:23;56.60;;;40.92;;
67508;SDS011;54354;44.724;11.284;2023-12-28T13:49:48;52.75;;;40.97;;
67508;SDS011;54354;44.724;11.284;2023-12-28T13:52:14;51.72;;;41.13;;
67508;SDS011;54354;44.724;11.284;2023-12-28T13:54:39;54.55;;;40.20;;
67508;SDS011;54354;44.724;11.284;2023-12-28T13:57:05;56.78;;;41.25;;
67508;SDS011;54354;44.724;11.284;2023-12-28T13:59:31;49.45;;;40.92;;
67508;SDS011;54354;44.724;11.284;2023-12-28T14:01:57;53.45;;;41.90;;
67508;SDS011;54354;44.724;11.284;2023-12-28T14:04:24;52.20;;;42.50;;
67508;SDS011;54354;44.724;11.284;2023-12-28T14:06:49;50.60;;;41.15;;
67508;SDS011;54354;44.724;11.284;2023-12-28T14:09:15;50.15;;;41.33;;
67508;SDS011;54354;44.724;11.284;2023-12-28T14:11:45;52.72;;;42.88;;
67508;SDS011;54354;44.724;11.284;2023-12-28T14:14:13;50.35;;;41.35;;
67508;SDS011;54354;44.724;11.284;2023-12-28T14:16:39;57.70;;;42.97;;